sensor_id;sensor_type;location;lat;lon;timestamp;temperature;humidity
30097;DHT22;16915;51.466;3.610;2023-04-03T00:00:56;3.70;99.90
30097;DHT22;16915;51.466;3.610;2023-04-03T00:03:21;3.60;99.90
30097;DHT22;16915;51.466;3.610;2023-04-03T00:05:47;3.60;99.90
30097;DHT22;16915;51.466;3.610;2023-04-03T00:08:13;3.50;99.90
30097;DHT22;16915;51.466;3.610;2023-04-03T00:10:38;3.50;99.90
30097;DHT22;16915;51.466;3.610;2023-04-03T00:13:05;3.50;99.90
30097;DHT22;16915;51.466;3.610;2023-04-03T00:15:31;3.50;99.90
30097;DHT22;16915;51.466;3.610;2023-04-03T00:17:57;3.60;99.90
30097;DHT22;16915;51.466;3.610;2023-04-03T00:20:23;3.50;99.90
30097;DHT22;16915;51.466;3.610;2023-04-03T00:22:48;3.60;99.90
30097;DHT22;16915;51.466;3.610;2023-04-03T00:25:14;3.50;99.90
30097;DHT22;16915;51.466;3.610;2023-04-03T00:27:40;3.50;99.90
30097;DHT22;16915;51.466;3.610;2023-04-03T00:30:07;3.50;99.90
30097;DHT22;16915;51.466;3.610;2023-04-03T00:32:34;3.50;99.90
30097;DHT22;16915;51.466;3.610;2023-04-03T00:35:00;3.50;99.90
30097;DHT22;16915;51.466;3.610;2023-04-03T00:37:25;3.50;99.90
30097;DHT22;16915;51.466;3.610;2023-04-03T00:39:51;3.60;99.90
30097;DHT22;16915;51.466;3.610;2023-04-03T00:42:16;3.60;99.90
30097;DHT22;16915;51.466;3.610;2023-04-03T00:47:11;3.60;99.90
30097;DHT22;16915;51.466;3.610;2023-04-03T00:49:38;3.60;99.90
30097;DHT22;16915;51.466;3.610;2023-04-03T00:52:11;3.70;99.90
30097;DHT22;16915;51.466;3.610;2023-04-03T00:54:41;3.60;99.90
30097;DHT22;16915;51.466;3.610;2023-04-03T00:57:07;3.60;99.90
30097;DHT22;16915;51.466;3.610;2023-04-03T00:59:36;3.60;99.90
30097;DHT22;16915;51.466;3.610;2023-04-03T01:02:03;3.60;99.90
30097;DHT22;16915;51.466;3.610;2023-04-03T01:04:36;3.60;99.90
30097;DHT22;16915;51.466;3.610;2023-04-03T01:07:11;3.60;99.90
30097;DHT22;16915;51.466;3.610;2023-04-03T01:09:38;3.50;99.90
30097;DHT22;16915;51.466;3.610;2023-04-03T01:13:00;3.50;99.90
30097;DHT22;16915;51.466;3.610;2023-04-03T01:15:10;3.40;99.90
30097;DHT22;16915;51.466;3.610;2023-04-03T01:17:41;3.30;99.90
30097;DHT22;16915;51.466;3.610;2023-04-03T01:23:06;3.30;99.90
30097;DHT22;16915;51.466;3.610;2023-04-03T01:25:45;3.20;99.90
30097;DHT22;16915;51.466;3.610;2023-04-03T01:28:16;3.20;99.90
30097;DHT22;16915;51.466;3.610;2023-04-03T01:33:18;3.10;99.90
30097;DHT22;16915;51.466;3.610;2023-04-03T01:35:43;3.00;99.90
30097;DHT22;16915;51.466;3.610;2023-04-03T01:38:09;3.00;99.90
30097;DHT22;16915;51.466;3.610;2023-04-03T01:40:36;3.00;99.90
30097;DHT22;16915;51.466;3.610;2023-04-03T01:43:02;2.90;99.90
30097;DHT22;16915;51.466;3.610;2023-04-03T01:45:28;2.90;99.90
30097;DHT22;16915;51.466;3.610;2023-04-03T01:47:54;2.80;99.90
30097;DHT22;16915;51.466;3.610;2023-04-03T01:50:19;2.80;99.90
30097;DHT22;16915;51.466;3.610;2023-04-03T01:52:45;2.80;99.90
30097;DHT22;16915;51.466;3.610;2023-04-03T01:55:10;2.70;99.90
30097;DHT22;16915;51.466;3.610;2023-04-03T01:57:36;2.60;99.90
30097;DHT22;16915;51.466;3.610;2023-04-03T02:00:02;2.60;99.90
30097;DHT22;16915;51.466;3.610;2023-04-03T02:02:28;2.50;99.90
30097;DHT22;16915;51.466;3.610;2023-04-03T02:04:53;2.50;99.90
30097;DHT22;16915;51.466;3.610;2023-04-03T02:07:20;2.50;99.90
30097;DHT22;16915;51.466;3.610;2023-04-03T02:09:45;2.40;99.90
30097;DHT22;16915;51.466;3.610;2023-04-03T02:12:11;2.50;99.90
30097;DHT22;16915;51.466;3.610;2023-04-03T02:14:36;2.50;99.90
30097;DHT22;16915;51.466;3.610;2023-04-03T02:17:02;2.50;99.90
30097;DHT22;16915;51.466;3.610;2023-04-03T02:19:34;2.50;99.90
30097;DHT22;16915;51.466;3.610;2023-04-03T02:22:01;2.40;99.90
30097;DHT22;16915;51.466;3.610;2023-04-03T02:24:27;2.40;99.90
30097;DHT22;16915;51.466;3.610;2023-04-03T02:26:53;2.40;99.90
30097;DHT22;16915;51.466;3.610;2023-04-03T02:29:19;2.40;99.90
30097;DHT22;16915;51.466;3.610;2023-04-03T02:31:44;2.40;99.90
30097;DHT22;16915;51.466;3.610;2023-04-03T02:34:10;2.30;99.90
30097;DHT22;16915;51.466;3.610;2023-04-03T02:36:36;2.20;99.90
30097;DHT22;16915;51.466;3.610;2023-04-03T02:39:02;2.20;99.90
30097;DHT22;16915;51.466;3.610;2023-04-03T02:41:28;2.20;99.90
30097;DHT22;16915;51.466;3.610;2023-04-03T02:44:00;2.20;99.90
30097;DHT22;16915;51.466;3.610;2023-04-03T02:46:25;2.10;99.90
30097;DHT22;16915;51.466;3.610;2023-04-03T02:48:51;2.10;99.90
30097;DHT22;16915;51.466;3.610;2023-04-03T02:51:17;2.10;99.90
30097;DHT22;16915;51.466;3.610;2023-04-03T02:53:43;2.10;99.90
30097;DHT22;16915;51.466;3.610;2023-04-03T02:56:08;2.10;99.90
30097;DHT22;16915;51.466;3.610;2023-04-03T02:58:34;2.10;99.90
30097;DHT22;16915;51.466;3.610;2023-04-03T03:01:01;2.10;99.90
30097;DHT22;16915;51.466;3.610;2023-04-03T03:03:26;2.20;99.90
30097;DHT22;16915;51.466;3.610;2023-04-03T03:06:13;2.10;99.90
30097;DHT22;16915;51.466;3.610;2023-04-03T03:08:39;2.10;99.90
30097;DHT22;16915;51.466;3.610;2023-04-03T03:11:05;2.10;99.90
30097;DHT22;16915;51.466;3.610;2023-04-03T03:13:31;2.10;99.90
30097;DHT22;16915;51.466;3.610;2023-04-03T03:15:57;2.10;99.90
30097;DHT22;16915;51.466;3.610;2023-04-03T03:18:23;2.10;99.90
30097;DHT22;16915;51.466;3.610;2023-04-03T03:20:53;2.10;99.90
30097;DHT22;16915;51.466;3.610;2023-04-03T03:23:19;2.00;99.90
30097;DHT22;16915;51.466;3.610;2023-04-03T03:25:45;2.00;99.90
30097;DHT22;16915;51.466;3.610;2023-04-03T03:28:11;2.00;99.90
30097;DHT22;16915;51.466;3.610;2023-04-03T03:30:37;2.00;99.90
30097;DHT22;16915;51.466;3.610;2023-04-03T03:33:03;2.00;99.90
30097;DHT22;16915;51.466;3.610;2023-04-03T03:35:28;2.00;99.90
30097;DHT22;16915;51.466;3.610;2023-04-03T03:37:54;1.90;99.90
30097;DHT22;16915;51.466;3.610;2023-04-03T03:40:19;1.90;99.90
30097;DHT22;16915;51.466;3.610;2023-04-03T03:42:45;1.90;99.90
30097;DHT22;16915;51.466;3.610;2023-04-03T03:45:10;1.90;99.90
30097;DHT22;16915;51.466;3.610;2023-04-03T03:47:36;1.80;99.90
30097;DHT22;16915;51.466;3.610;2023-04-03T03:50:02;1.80;99.90
30097;DHT22;16915;51.466;3.610;2023-04-03T03:52:28;1.80;99.90
30097;DHT22;16915;51.466;3.610;2023-04-03T03:54:55;1.80;99.90
30097;DHT22;16915;51.466;3.610;2023-04-03T03:57:21;1.70;99.90
30097;DHT22;16915;51.466;3.610;2023-04-03T03:59:47;1.70;99.90
30097;DHT22;16915;51.466;3.610;2023-04-03T04:02:14;1.70;99.90
30097;DHT22;16915;51.466;3.610;2023-04-03T04:04:39;1.70;99.90
30097;DHT22;16915;51.466;3.610;2023-04-03T04:07:05;1.70;99.90
30097;DHT22;16915;51.466;3.610;2023-04-03T04:09:31;1.70;99.90
30097;DHT22;16915;51.466;3.610;2023-04-03T04:11:56;1.70;99.90
30097;DHT22;16915;51.466;3.610;2023-04-03T04:14:22;1.60;99.90
30097;DHT22;16915;51.466;3.610;2023-04-03T04:16:48;1.60;99.90
30097;DHT22;16915;51.466;3.610;2023-04-03T04:19:13;1.60;99.90
30097;DHT22;16915;51.466;3.610;2023-04-03T04:21:39;1.70;99.90
30097;DHT22;16915;51.466;3.610;2023-04-03T04:24:05;1.60;99.90
30097;DHT22;16915;51.466;3.610;2023-04-03T04:26:31;1.60;99.90
30097;DHT22;16915;51.466;3.610;2023-04-03T04:28:57;1.70;99.90
30097;DHT22;16915;51.466;3.610;2023-04-03T04:31:22;1.70;99.90
30097;DHT22;16915;51.466;3.610;2023-04-03T04:33:48;1.80;99.90
30097;DHT22;16915;51.466;3.610;2023-04-03T04:36:13;1.70;99.90
30097;DHT22;16915;51.466;3.610;2023-04-03T04:38:40;1.70;99.90
30097;DHT22;16915;51.466;3.610;2023-04-03T04:41:06;1.70;99.90
30097;DHT22;16915;51.466;3.610;2023-04-03T04:43:32;1.70;99.90
30097;DHT22;16915;51.466;3.610;2023-04-03T04:46:09;1.60;99.90
30097;DHT22;16915;51.466;3.610;2023-04-03T04:48:35;1.70;99.90
30097;DHT22;16915;51.466;3.610;2023-04-03T04:51:01;1.60;99.90
30097;DHT22;16915;51.466;3.610;2023-04-03T04:53:27;1.60;99.90
30097;DHT22;16915;51.466;3.610;2023-04-03T04:55:53;1.70;99.90
30097;DHT22;16915;51.466;3.610;2023-04-03T04:58:19;1.70;99.90
30097;DHT22;16915;51.466;3.610;2023-04-03T05:00:45;1.80;99.90
30097;DHT22;16915;51.466;3.610;2023-04-03T05:03:11;1.80;99.90
30097;DHT22;16915;51.466;3.610;2023-04-03T05:05:36;1.80;99.90
30097;DHT22;16915;51.466;3.610;2023-04-03T05:08:02;1.70;99.90
30097;DHT22;16915;51.466;3.610;2023-04-03T05:10:28;1.80;99.90
30097;DHT22;16915;51.466;3.610;2023-04-03T05:12:54;1.80;99.90
30097;DHT22;16915;51.466;3.610;2023-04-03T05:15:19;1.80;99.90
30097;DHT22;16915;51.466;3.610;2023-04-03T05:17:45;1.80;99.90
30097;DHT22;16915;51.466;3.610;2023-04-03T05:20:11;1.80;99.90
30097;DHT22;16915;51.466;3.610;2023-04-03T05:22:37;1.70;99.90
30097;DHT22;16915;51.466;3.610;2023-04-03T05:25:04;1.70;99.90
30097;DHT22;16915;51.466;3.610;2023-04-03T05:27:29;1.70;99.90
30097;DHT22;16915;51.466;3.610;2023-04-03T05:29:55;1.70;99.90
30097;DHT22;16915;51.466;3.610;2023-04-03T05:32:22;1.70;99.90
30097;DHT22;16915;51.466;3.610;2023-04-03T05:34:48;1.70;99.90
30097;DHT22;16915;51.466;3.610;2023-04-03T05:37:13;1.60;99.90
30097;DHT22;16915;51.466;3.610;2023-04-03T05:39:39;1.60;99.90
30097;DHT22;16915;51.466;3.610;2023-04-03T05:42:06;1.60;99.90
30097;DHT22;16915;51.466;3.610;2023-04-03T05:44:32;1.70;99.90
30097;DHT22;16915;51.466;3.610;2023-04-03T05:46:58;1.80;99.90
30097;DHT22;16915;51.466;3.610;2023-04-03T05:49:23;1.80;99.90
30097;DHT22;16915;51.466;3.610;2023-04-03T05:51:50;1.80;99.90
30097;DHT22;16915;51.466;3.610;2023-04-03T05:54:25;1.90;99.90
30097;DHT22;16915;51.466;3.610;2023-04-03T05:56:52;1.90;99.90
30097;DHT22;16915;51.466;3.610;2023-04-03T05:59:19;2.00;99.90
30097;DHT22;16915;51.466;3.610;2023-04-03T06:01:45;2.00;99.90
30097;DHT22;16915;51.466;3.610;2023-04-03T06:04:11;2.10;99.90
30097;DHT22;16915;51.466;3.610;2023-04-03T06:06:50;2.20;99.90
30097;DHT22;16915;51.466;3.610;2023-04-03T06:09:20;2.30;99.90
30097;DHT22;16915;51.466;3.610;2023-04-03T06:11:47;2.40;99.90
30097;DHT22;16915;51.466;3.610;2023-04-03T06:14:12;2.50;99.90
30097;DHT22;16915;51.466;3.610;2023-04-03T06:16:38;2.50;99.90
30097;DHT22;16915;51.466;3.610;2023-04-03T06:19:04;2.60;99.90
30097;DHT22;16915;51.466;3.610;2023-04-03T06:21:31;2.60;99.90
30097;DHT22;16915;51.466;3.610;2023-04-03T06:23:57;2.80;99.90
30097;DHT22;16915;51.466;3.610;2023-04-03T06:26:23;2.80;99.90
30097;DHT22;16915;51.466;3.610;2023-04-03T06:28:48;2.90;99.90
30097;DHT22;16915;51.466;3.610;2023-04-03T06:31:14;3.00;99.90
30097;DHT22;16915;51.466;3.610;2023-04-03T06:33:40;3.10;99.90
30097;DHT22;16915;51.466;3.610;2023-04-03T06:36:06;3.20;99.90
30097;DHT22;16915;51.466;3.610;2023-04-03T06:38:33;3.30;99.90
30097;DHT22;16915;51.466;3.610;2023-04-03T06:40:59;3.40;99.90
30097;DHT22;16915;51.466;3.610;2023-04-03T06:43:25;3.40;99.90
30097;DHT22;16915;51.466;3.610;2023-04-03T06:45:51;3.50;99.90
30097;DHT22;16915;51.466;3.610;2023-04-03T06:48:17;3.60;99.90
30097;DHT22;16915;51.466;3.610;2023-04-03T06:50:42;3.70;99.90
30097;DHT22;16915;51.466;3.610;2023-04-03T06:53:09;3.80;99.90
30097;DHT22;16915;51.466;3.610;2023-04-03T06:55:35;3.80;99.90
30097;DHT22;16915;51.466;3.610;2023-04-03T06:58:01;3.90;99.90
30097;DHT22;16915;51.466;3.610;2023-04-03T07:00:27;4.00;99.90
30097;DHT22;16915;51.466;3.610;2023-04-03T07:02:53;4.10;99.90
30097;DHT22;16915;51.466;3.610;2023-04-03T07:05:18;4.20;99.90
30097;DHT22;16915;51.466;3.610;2023-04-03T07:07:44;4.30;99.90
30097;DHT22;16915;51.466;3.610;2023-04-03T07:10:10;4.30;99.90
30097;DHT22;16915;51.466;3.610;2023-04-03T07:12:36;4.50;99.90
30097;DHT22;16915;51.466;3.610;2023-04-03T07:15:04;4.50;99.90
30097;DHT22;16915;51.466;3.610;2023-04-03T07:17:29;4.70;99.90
30097;DHT22;16915;51.466;3.610;2023-04-03T07:19:55;4.80;99.90
30097;DHT22;16915;51.466;3.610;2023-04-03T07:22:21;4.90;99.90
30097;DHT22;16915;51.466;3.610;2023-04-03T07:24:46;5.00;99.90
30097;DHT22;16915;51.466;3.610;2023-04-03T07:27:12;5.10;99.90
30097;DHT22;16915;51.466;3.610;2023-04-03T07:29:38;5.20;99.90
30097;DHT22;16915;51.466;3.610;2023-04-03T07:32:04;5.30;99.90
30097;DHT22;16915;51.466;3.610;2023-04-03T07:34:31;5.40;99.90
30097;DHT22;16915;51.466;3.610;2023-04-03T07:36:58;5.40;99.90
30097;DHT22;16915;51.466;3.610;2023-04-03T07:39:24;5.50;99.90
30097;DHT22;16915;51.466;3.610;2023-04-03T07:41:50;5.60;99.90
30097;DHT22;16915;51.466;3.610;2023-04-03T07:44:15;5.70;99.90
30097;DHT22;16915;51.466;3.610;2023-04-03T07:46:41;5.80;99.90
30097;DHT22;16915;51.466;3.610;2023-04-03T07:49:07;5.90;99.90
30097;DHT22;16915;51.466;3.610;2023-04-03T07:51:33;5.90;99.90
30097;DHT22;16915;51.466;3.610;2023-04-03T07:53:59;6.10;99.90
30097;DHT22;16915;51.466;3.610;2023-04-03T07:56:24;6.10;99.90
30097;DHT22;16915;51.466;3.610;2023-04-03T07:58:50;6.20;99.90
30097;DHT22;16915;51.466;3.610;2023-04-03T08:01:16;6.20;99.90
30097;DHT22;16915;51.466;3.610;2023-04-03T08:03:42;6.30;99.90
30097;DHT22;16915;51.466;3.610;2023-04-03T08:06:08;6.40;99.90
30097;DHT22;16915;51.466;3.610;2023-04-03T08:08:34;6.50;99.90
30097;DHT22;16915;51.466;3.610;2023-04-03T08:11:01;6.50;99.90
30097;DHT22;16915;51.466;3.610;2023-04-03T08:13:28;6.50;99.90
30097;DHT22;16915;51.466;3.610;2023-04-03T08:15:54;6.60;99.90
30097;DHT22;16915;51.466;3.610;2023-04-03T08:18:22;6.60;99.90
30097;DHT22;16915;51.466;3.610;2023-04-03T08:20:50;6.70;99.90
30097;DHT22;16915;51.466;3.610;2023-04-03T08:23:17;6.70;99.90
30097;DHT22;16915;51.466;3.610;2023-04-03T08:25:43;6.80;99.90
30097;DHT22;16915;51.466;3.610;2023-04-03T08:28:11;6.90;99.90
30097;DHT22;16915;51.466;3.610;2023-04-03T08:30:40;7.00;99.90
30097;DHT22;16915;51.466;3.610;2023-04-03T08:33:06;7.00;99.90
30097;DHT22;16915;51.466;3.610;2023-04-03T08:35:32;7.00;99.90
30097;DHT22;16915;51.466;3.610;2023-04-03T08:37:58;7.20;99.90
30097;DHT22;16915;51.466;3.610;2023-04-03T08:40:24;7.30;99.90
30097;DHT22;16915;51.466;3.610;2023-04-03T08:43:27;7.30;99.90
30097;DHT22;16915;51.466;3.610;2023-04-03T08:45:57;7.40;99.90
30097;DHT22;16915;51.466;3.610;2023-04-03T08:48:39;7.50;99.90
30097;DHT22;16915;51.466;3.610;2023-04-03T08:51:17;7.60;99.90
30097;DHT22;16915;51.466;3.610;2023-04-03T08:53:53;7.70;99.90
30097;DHT22;16915;51.466;3.610;2023-04-03T08:56:20;7.70;99.90
30097;DHT22;16915;51.466;3.610;2023-04-03T08:58:52;7.80;99.90
30097;DHT22;16915;51.466;3.610;2023-04-03T09:01:37;7.80;99.90
30097;DHT22;16915;51.466;3.610;2023-04-03T09:04:10;7.90;99.90
30097;DHT22;16915;51.466;3.610;2023-04-03T09:06:38;8.00;99.90
30097;DHT22;16915;51.466;3.610;2023-04-03T09:14:59;8.10;99.90
30097;DHT22;16915;51.466;3.610;2023-04-03T09:22:41;8.20;99.90
30097;DHT22;16915;51.466;3.610;2023-04-03T09:25:11;8.20;99.90
30097;DHT22;16915;51.466;3.610;2023-04-03T09:27:38;8.20;99.90
30097;DHT22;16915;51.466;3.610;2023-04-03T09:30:04;8.20;99.90
30097;DHT22;16915;51.466;3.610;2023-04-03T09:32:31;8.30;99.90
30097;DHT22;16915;51.466;3.610;2023-04-03T09:35:01;8.30;99.90
30097;DHT22;16915;51.466;3.610;2023-04-03T09:37:47;8.30;99.90
30097;DHT22;16915;51.466;3.610;2023-04-03T09:43:31;8.40;99.90
30097;DHT22;16915;51.466;3.610;2023-04-03T09:46:28;8.50;99.90
30097;DHT22;16915;51.466;3.610;2023-04-03T09:49:00;8.60;99.90
30097;DHT22;16915;51.466;3.610;2023-04-03T09:51:27;8.60;99.90
30097;DHT22;16915;51.466;3.610;2023-04-03T09:53:53;8.70;99.90
30097;DHT22;16915;51.466;3.610;2023-04-03T09:56:20;8.80;99.90
30097;DHT22;16915;51.466;3.610;2023-04-03T09:59:05;8.90;99.90
30097;DHT22;16915;51.466;3.610;2023-04-03T10:01:35;9.00;99.90
30097;DHT22;16915;51.466;3.610;2023-04-03T10:04:14;9.20;99.90
30097;DHT22;16915;51.466;3.610;2023-04-03T10:09:28;9.60;99.90
30097;DHT22;16915;51.466;3.610;2023-04-03T10:12:04;9.90;99.90
30097;DHT22;16915;51.466;3.610;2023-04-03T10:14:35;10.10;99.90
30097;DHT22;16915;51.466;3.610;2023-04-03T10:30:40;11.50;99.90
30097;DHT22;16915;51.466;3.610;2023-04-03T10:36:12;12.00;99.90
30097;DHT22;16915;51.466;3.610;2023-04-03T10:43:57;12.60;99.90
30097;DHT22;16915;51.466;3.610;2023-04-03T10:46:40;12.60;99.90
30097;DHT22;16915;51.466;3.610;2023-04-03T10:52:07;12.90;99.90
30097;DHT22;16915;51.466;3.610;2023-04-03T10:54:40;13.30;99.90
30097;DHT22;16915;51.466;3.610;2023-04-03T10:57:11;13.50;99.90
30097;DHT22;16915;51.466;3.610;2023-04-03T11:00:06;13.70;99.90
30097;DHT22;16915;51.466;3.610;2023-04-03T11:02:41;13.80;99.90
30097;DHT22;16915;51.466;3.610;2023-04-03T11:05:45;13.80;99.90
30097;DHT22;16915;51.466;3.610;2023-04-03T11:08:35;14.10;99.90
30097;DHT22;16915;51.466;3.610;2023-04-03T11:11:16;14.00;99.90
30097;DHT22;16915;51.466;3.610;2023-04-03T11:16:34;14.50;99.90
30097;DHT22;16915;51.466;3.610;2023-04-03T11:19:07;14.90;99.90
30097;DHT22;16915;51.466;3.610;2023-04-03T11:21:39;14.90;99.50
30097;DHT22;16915;51.466;3.610;2023-04-03T11:24:16;15.00;99.10
30097;DHT22;16915;51.466;3.610;2023-04-03T11:26:43;14.80;96.70
30097;DHT22;16915;51.466;3.610;2023-04-03T11:29:14;14.90;96.50
30097;DHT22;16915;51.466;3.610;2023-04-03T11:34:39;15.20;98.00
30097;DHT22;16915;51.466;3.610;2023-04-03T11:37:28;15.50;97.60
30097;DHT22;16915;51.466;3.610;2023-04-03T11:40:01;16.00;98.00
30097;DHT22;16915;51.466;3.610;2023-04-03T11:42:39;16.20;96.10
30097;DHT22;16915;51.466;3.610;2023-04-03T11:47:58;15.90;96.20
30097;DHT22;16915;51.466;3.610;2023-04-03T11:50:45;15.60;96.30
30097;DHT22;16915;51.466;3.610;2023-04-03T11:58:29;15.60;95.00
30097;DHT22;16915;51.466;3.610;2023-04-03T12:13:40;16.60;93.10
30097;DHT22;16915;51.466;3.610;2023-04-03T12:21:22;16.70;91.40
30097;DHT22;16915;51.466;3.610;2023-04-03T12:24:04;16.90;91.60
30097;DHT22;16915;51.466;3.610;2023-04-03T12:26:34;17.10;90.50
30097;DHT22;16915;51.466;3.610;2023-04-03T12:29:23;17.10;89.50
30097;DHT22;16915;51.466;3.610;2023-04-03T12:45:24;17.10;85.50
30097;DHT22;16915;51.466;3.610;2023-04-03T12:47:53;17.00;90.00
30097;DHT22;16915;51.466;3.610;2023-04-03T12:50:27;17.00;85.70
30097;DHT22;16915;51.466;3.610;2023-04-03T12:53:13;17.20;85.40
30097;DHT22;16915;51.466;3.610;2023-04-03T12:55:39;17.00;83.10
30097;DHT22;16915;51.466;3.610;2023-04-03T13:00:42;16.80;84.50
30097;DHT22;16915;51.466;3.610;2023-04-03T13:03:24;17.40;82.60
30097;DHT22;16915;51.466;3.610;2023-04-03T13:05:54;18.10;81.90
30097;DHT22;16915;51.466;3.610;2023-04-03T13:08:20;18.20;81.60
30097;DHT22;16915;51.466;3.610;2023-04-03T13:13:15;18.30;77.20
30097;DHT22;16915;51.466;3.610;2023-04-03T13:15:46;18.30;78.00
30097;DHT22;16915;51.466;3.610;2023-04-03T13:18:27;18.20;76.00
30097;DHT22;16915;51.466;3.610;2023-04-03T13:20:57;17.90;76.80
30097;DHT22;16915;51.466;3.610;2023-04-03T13:23:24;17.70;76.70
30097;DHT22;16915;51.466;3.610;2023-04-03T13:25:50;17.60;75.60
30097;DHT22;16915;51.466;3.610;2023-04-03T13:28:22;17.40;75.10
30097;DHT22;16915;51.466;3.610;2023-04-03T13:31:24;17.60;77.50
30097;DHT22;16915;51.466;3.610;2023-04-03T13:33:53;18.00;75.40
30097;DHT22;16915;51.466;3.610;2023-04-03T13:36:22;18.10;74.50
30097;DHT22;16915;51.466;3.610;2023-04-03T13:39:02;17.60;74.40
30097;DHT22;16915;51.466;3.610;2023-04-03T13:41:32;17.80;75.80
30097;DHT22;16915;51.466;3.610;2023-04-03T13:46:41;18.80;72.80
30097;DHT22;16915;51.466;3.610;2023-04-03T13:49:21;18.70;70.30
30097;DHT22;16915;51.466;3.610;2023-04-03T13:51:48;18.20;70.80
30097;DHT22;16915;51.466;3.610;2023-04-03T13:54:21;17.90;70.20
30097;DHT22;16915;51.466;3.610;2023-04-03T13:56:53;17.80;69.60
30097;DHT22;16915;51.466;3.610;2023-04-03T14:01:52;18.50;66.90
30097;DHT22;16915;51.466;3.610;2023-04-03T14:04:25;18.30;67.40
30097;DHT22;16915;51.466;3.610;2023-04-03T14:06:51;18.60;69.60
30097;DHT22;16915;51.466;3.610;2023-04-03T14:09:19;18.50;67.00
30097;DHT22;16915;51.466;3.610;2023-04-03T14:11:46;18.30;67.00
30097;DHT22;16915;51.466;3.610;2023-04-03T14:14:29;18.00;66.40
30097;DHT22;16915;51.466;3.610;2023-04-03T14:16:58;18.00;66.40
30097;DHT22;16915;51.466;3.610;2023-04-03T14:19:35;17.60;65.40
30097;DHT22;16915;51.466;3.610;2023-04-03T14:22:28;17.50;66.90
30097;DHT22;16915;51.466;3.610;2023-04-03T14:24:54;17.90;68.90
30097;DHT22;16915;51.466;3.610;2023-04-03T14:27:26;18.30;67.50
30097;DHT22;16915;51.466;3.610;2023-04-03T14:29:54;18.60;65.50
30097;DHT22;16915;51.466;3.610;2023-04-03T14:32:22;18.70;65.70
30097;DHT22;16915;51.466;3.610;2023-04-03T14:34:50;18.60;64.70
30097;DHT22;16915;51.466;3.610;2023-04-03T14:37:20;18.50;65.40
30097;DHT22;16915;51.466;3.610;2023-04-03T14:39:47;18.40;62.70
30097;DHT22;16915;51.466;3.610;2023-04-03T14:42:22;18.70;62.10
30097;DHT22;16915;51.466;3.610;2023-04-03T14:44:48;19.10;62.80
30097;DHT22;16915;51.466;3.610;2023-04-03T14:47:17;19.20;61.40
30097;DHT22;16915;51.466;3.610;2023-04-03T14:49:43;19.00;60.20
30097;DHT22;16915;51.466;3.610;2023-04-03T14:52:19;19.10;59.80
30097;DHT22;16915;51.466;3.610;2023-04-03T14:54:45;18.80;59.20
30097;DHT22;16915;51.466;3.610;2023-04-03T14:57:13;18.70;59.30
30097;DHT22;16915;51.466;3.610;2023-04-03T14:59:39;18.70;59.60
30097;DHT22;16915;51.466;3.610;2023-04-03T15:02:35;18.70;61.90
30097;DHT22;16915;51.466;3.610;2023-04-03T15:05:06;19.00;61.10
30097;DHT22;16915;51.466;3.610;2023-04-03T15:07:38;18.90;59.40
30097;DHT22;16915;51.466;3.610;2023-04-03T15:10:19;18.40;59.30
30097;DHT22;16915;51.466;3.610;2023-04-03T15:12:46;17.10;61.40
30097;DHT22;16915;51.466;3.610;2023-04-03T15:15:12;15.70;63.70
30097;DHT22;16915;51.466;3.610;2023-04-03T15:17:38;14.50;64.80
30097;DHT22;16915;51.466;3.610;2023-04-03T15:20:15;13.30;64.40
30097;DHT22;16915;51.466;3.610;2023-04-03T15:22:41;12.40;66.70
30097;DHT22;16915;51.466;3.610;2023-04-03T15:25:08;11.90;68.80
30097;DHT22;16915;51.466;3.610;2023-04-03T15:27:34;11.50;68.10
30097;DHT22;16915;51.466;3.610;2023-04-03T15:30:00;11.30;73.70
30097;DHT22;16915;51.466;3.610;2023-04-03T15:32:25;11.10;74.70
30097;DHT22;16915;51.466;3.610;2023-04-03T15:34:51;10.90;72.30
30097;DHT22;16915;51.466;3.610;2023-04-03T15:37:16;10.80;72.50
30097;DHT22;16915;51.466;3.610;2023-04-03T15:39:42;10.70;73.70
30097;DHT22;16915;51.466;3.610;2023-04-03T15:42:07;10.70;73.70
30097;DHT22;16915;51.466;3.610;2023-04-03T15:44:34;10.60;73.00
30097;DHT22;16915;51.466;3.610;2023-04-03T15:47:00;10.50;72.90
30097;DHT22;16915;51.466;3.610;2023-04-03T15:49:26;10.40;74.80
30097;DHT22;16915;51.466;3.610;2023-04-03T15:51:52;10.40;76.90
30097;DHT22;16915;51.466;3.610;2023-04-03T15:54:18;10.40;77.10
30097;DHT22;16915;51.466;3.610;2023-04-03T15:56:44;10.40;75.10
30097;DHT22;16915;51.466;3.610;2023-04-03T15:59:09;10.30;75.20
30097;DHT22;16915;51.466;3.610;2023-04-03T16:01:36;10.30;77.00
30097;DHT22;16915;51.466;3.610;2023-04-03T16:04:02;10.30;77.90
30097;DHT22;16915;51.466;3.610;2023-04-03T16:06:28;10.30;81.10
30097;DHT22;16915;51.466;3.610;2023-04-03T16:08:55;10.20;82.60
30097;DHT22;16915;51.466;3.610;2023-04-03T16:11:24;10.20;83.40
30097;DHT22;16915;51.466;3.610;2023-04-03T16:13:50;10.00;84.60
30097;DHT22;16915;51.466;3.610;2023-04-03T16:16:16;10.00;87.00
30097;DHT22;16915;51.466;3.610;2023-04-03T16:18:42;9.90;86.00
30097;DHT22;16915;51.466;3.610;2023-04-03T16:21:08;9.90;88.30
30097;DHT22;16915;51.466;3.610;2023-04-03T16:23:34;9.80;88.30
30097;DHT22;16915;51.466;3.610;2023-04-03T16:26:00;9.90;88.20
30097;DHT22;16915;51.466;3.610;2023-04-03T16:28:26;9.80;87.90
30097;DHT22;16915;51.466;3.610;2023-04-03T16:30:51;9.80;89.60
30097;DHT22;16915;51.466;3.610;2023-04-03T16:33:17;9.80;90.80
30097;DHT22;16915;51.466;3.610;2023-04-03T16:35:43;9.80;90.80
30097;DHT22;16915;51.466;3.610;2023-04-03T16:38:09;9.80;91.90
30097;DHT22;16915;51.466;3.610;2023-04-03T16:40:35;9.80;91.20
30097;DHT22;16915;51.466;3.610;2023-04-03T16:43:02;9.70;91.80
30097;DHT22;16915;51.466;3.610;2023-04-03T16:45:27;9.60;91.10
30097;DHT22;16915;51.466;3.610;2023-04-03T16:47:53;9.60;91.30
30097;DHT22;16915;51.466;3.610;2023-04-03T16:50:19;9.60;91.70
30097;DHT22;16915;51.466;3.610;2023-04-03T16:52:47;9.50;91.50
30097;DHT22;16915;51.466;3.610;2023-04-03T16:55:13;9.50;91.70
30097;DHT22;16915;51.466;3.610;2023-04-03T16:57:38;9.50;92.20
30097;DHT22;16915;51.466;3.610;2023-04-03T17:00:05;9.40;92.90
30097;DHT22;16915;51.466;3.610;2023-04-03T17:02:31;9.40;93.30
30097;DHT22;16915;51.466;3.610;2023-04-03T17:04:57;9.40;93.50
30097;DHT22;16915;51.466;3.610;2023-04-03T17:07:24;9.40;93.70
30097;DHT22;16915;51.466;3.610;2023-04-03T17:09:50;9.30;94.30
30097;DHT22;16915;51.466;3.610;2023-04-03T17:12:16;9.30;94.30
30097;DHT22;16915;51.466;3.610;2023-04-03T17:14:41;9.30;95.10
30097;DHT22;16915;51.466;3.610;2023-04-03T17:17:07;9.20;94.50
30097;DHT22;16915;51.466;3.610;2023-04-03T17:19:35;9.20;94.30
30097;DHT22;16915;51.466;3.610;2023-04-03T17:22:01;9.10;94.10
30097;DHT22;16915;51.466;3.610;2023-04-03T17:24:27;9.00;94.40
30097;DHT22;16915;51.466;3.610;2023-04-03T17:26:53;9.00;94.10
30097;DHT22;16915;51.466;3.610;2023-04-03T17:29:19;9.00;94.70
30097;DHT22;16915;51.466;3.610;2023-04-03T17:31:44;8.90;94.80
30097;DHT22;16915;51.466;3.610;2023-04-03T17:34:10;8.90;95.40
30097;DHT22;16915;51.466;3.610;2023-04-03T17:36:38;8.80;96.40